LOC: 29.05.2016 12:29:53
UTC: 29.05.2016 09:29:53
ilmateenistus.ee keskkonnaagentuur.ee
EETN Tallinn
FTEO31 EETN 290500
TAF EETN 290530Z 2906/3006 08007KT 9999 BKN025 PROB40 TEMPO 2906/2909
    BKN015 BECMG 2910/2912 04014KT BECMG 2918//2920 07007KT PROB40 TEMPO
    2922/3004 BKN010=

METAR EETN 290920Z 05008KT 9999 SCT012 OVC029 15/12 Q1023 NOSIG=
Tallinn
EEKA Kärdla
METAR EEKA 290850Z NIL=
Kärdla
EEKE Kuressaare
METAR EEKE 290850Z 10012KT 9999 SCT009 15/12 Q1021=
Kuressaare
EEPU Pärnu
METAR EEPU 290850Z 06007KT 360V120 9999 BKN030 19/11 Q1021=
Pärnu
EETU Tartu
METAR EETU 290920Z 07009KT 020V120 9999 BKN025 19/12 Q1021=
Tartu

News

Duty Forecaster: 666 0932 aviamet@envir.ee